Time;durP1;ratioP1;P1;durP2;ratioP2;P2;SDS_P1;SDS_P2;PMS_P1;PMS_P2;Temp;Humidity;BMP_temperature;BMP_pressure;BME280_temperature;BME280_humidity;BME280_pressure;Samples;Min_cycle;Max_cycle;Signal;HPM_P1;HPM_P2
2021/07/11 00:02:14;;;;;;;7.07;4.63;;;19.60;79.90;;;;;;4976194;28;20078;-92
2021/07/11 00:04:41;;;;;;;6.15;4.43;;;19.60;80.00;;;;;;4977578;28;20051;-92
2021/07/11 00:07:07;;;;;;;6.40;4.72;;;19.60;80.00;;;;;;4976829;28;20057;-93
2021/07/11 00:09:32;;;;;;;7.88;4.60;;;19.50;80.00;;;;;;4976588;28;20130;-93
2021/07/11 00:11:58;;;;;;;6.65;4.55;;;19.50;80.10;;;;;;4977212;28;20055;-93
2021/07/11 00:14:23;;;;;;;7.65;4.57;;;19.40;80.10;;;;;;4977611;28;20058;-93
2021/07/11 00:16:49;;;;;;;7.15;4.78;;;19.40;80.30;;;;;;4976994;28;20053;-93
2021/07/11 00:19:15;;;;;;;7.70;4.50;;;19.40;80.00;;;;;;4977417;28;20188;-92
2021/07/11 00:21:40;;;;;;;6.00;4.55;;;19.30;80.40;;;;;;4977379;28;20566;-93
2021/07/11 00:24:06;;;;;;;7.45;4.53;;;19.30;80.40;;;;;;4976804;28;20070;-92
2021/07/11 00:26:32;;;;;;;8.63;4.75;;;19.30;80.70;;;;;;4976475;28;20043;-93
2021/07/11 00:28:57;;;;;;;6.63;4.95;;;19.20;80.80;;;;;;4976561;28;20061;-92
2021/07/11 00:31:23;;;;;;;6.88;4.63;;;19.20;80.50;;;;;;4976412;28;20443;-92
2021/07/11 00:33:49;;;;;;;7.88;5.07;;;19.20;80.70;;;;;;4976610;28;20065;-92
2021/07/11 00:36:14;;;;;;;8.23;4.82;;;19.10;80.70;;;;;;4977428;28;20053;-92
2021/07/11 00:38:40;;;;;;;7.80;4.85;;;19.10;80.90;;;;;;4977005;28;20039;-91
2021/07/11 00:41:06;;;;;;;6.50;4.65;;;19.10;81.00;;;;;;4976449;28;20074;-90
2021/07/11 00:43:31;;;;;;;7.07;4.93;;;19.00;81.20;;;;;;4976447;28;20062;-91
2021/07/11 00:45:57;;;;;;;8.05;4.70;;;19.00;81.40;;;;;;4975902;28;20055;-86
2021/07/11 00:48:23;;;;;;;6.75;4.95;;;19.00;81.10;;;;;;4976309;28;20051;-93
2021/07/11 00:50:48;;;;;;;7.38;4.40;;;18.90;81.40;;;;;;4976047;28;20055;-92
2021/07/11 00:53:15;;;;;;;5.75;4.13;;;18.90;80.90;;;;;;4975724;28;20388;-93
2021/07/11 00:55:41;;;;;;;6.05;4.28;;;18.90;81.10;;;;;;4976538;28;20102;-93
2021/07/11 00:58:06;;;;;;;7.22;5.07;;;18.80;81.10;;;;;;4974925;28;20051;-93
2021/07/11 01:00:33;;;;;;;6.57;4.45;;;18.80;81.10;;;;;;4976173;28;20133;-92
2021/07/11 01:03:11;;;;;;;7.57;4.85;;;18.80;81.30;;;;;;4976487;28;20507;-92
2021/07/11 01:05:38;;;;;;;6.88;4.78;;;18.70;80.70;;;;;;4976427;28;20074;-92
2021/07/11 01:08:10;;;;;;;9.52;4.82;;;18.70;81.50;;;;;;4976161;28;20477;-92
2021/07/11 01:10:47;;;;;;;7.07;4.75;;;18.70;81.50;;;;;;4976734;28;20105;-93
2021/07/11 01:13:15;;;;;;;6.97;4.70;;;18.60;81.30;;;;;;4975825;28;20057;-92
2021/07/11 01:15:45;;;;;;;7.43;4.85;;;18.60;81.40;;;;;;4976306;28;20047;-92
2021/07/11 01:18:12;;;;;;;6.80;4.60;;;18.60;81.00;;;;;;4976047;28;20053;-92
2021/07/11 01:20:48;;;;;;;8.25;4.32;;;18.60;81.20;;;;;;4975568;28;20581;-92
2021/07/11 01:23:41;;;;;;;5.90;4.07;;;18.50;81.40;;;;;;4976954;28;20090;-93
2021/07/11 01:26:09;;;;;;;7.30;4.37;;;18.50;81.30;;;;;;4976534;28;20078;-93
2021/07/11 01:28:36;;;;;;;6.15;4.25;;;18.40;81.50;;;;;;4976607;28;20203;-93
2021/07/11 01:31:02;;;;;;;7.03;4.50;;;18.40;81.50;;;;;;4975682;28;20047;-92
2021/07/11 01:33:30;;;;;;;6.10;4.43;;;18.30;80.90;;;;;;4976285;28;20069;-90
2021/07/11 01:35:58;;;;;;;7.10;4.70;;;18.40;81.60;;;;;;4975994;28;20089;-91
2021/07/11 01:38:25;;;;;;;6.90;4.30;;;18.30;81.70;;;;;;4976023;28;20073;-90
2021/07/11 01:40:51;;;;;;;7.22;4.25;;;18.30;81.90;;;;;;4976009;28;20053;-92
2021/07/11 01:43:20;;;;;;;7.00;4.13;;;18.30;81.90;;;;;;4976309;28;20054;-92
2021/07/11 01:45:48;;;;;;;6.60;4.20;;;18.30;81.50;;;;;;4976109;28;20506;-90
2021/07/11 01:48:15;;;;;;;7.90;4.63;;;18.20;81.50;;;;;;4975824;28;20194;-92
2021/07/11 01:50:41;;;;;;;5.90;4.47;;;18.20;81.90;;;;;;4976561;28;20125;-92
2021/07/11 01:53:09;;;;;;;7.22;4.38;;;18.20;82.20;;;;;;4976899;28;20418;-91
2021/07/11 01:55:35;;;;;;;7.68;4.70;;;18.20;82.30;;;;;;4975263;28;20047;-92
2021/07/11 01:58:01;;;;;;;7.40;4.70;;;18.10;82.40;;;;;;4975590;28;20452;-91
2021/07/11 02:00:28;;;;;;;6.38;4.13;;;18.10;82.50;;;;;;4975073;28;20058;-91
2021/07/11 02:02:54;;;;;;;6.97;4.25;;;18.00;82.10;;;;;;4974777;28;20051;-91
2021/07/11 02:05:20;;;;;;;6.45;4.45;;;18.00;82.30;;;;;;4976102;28;20055;-90
2021/07/11 02:07:47;;;;;;;6.40;4.30;;;18.00;82.50;;;;;;4975619;28;20050;-91
2021/07/11 02:10:15;;;;;;;6.82;4.18;;;18.00;82.50;;;;;;4975539;28;20046;-91
2021/07/11 02:12:53;;;;;;;6.57;4.57;;;17.90;82.80;;;;;;4976051;28;20057;-91
2021/07/11 02:15:19;;;;;;;6.70;4.22;;;18.00;83.00;;;;;;4976172;28;20047;-92
2021/07/11 02:17:50;;;;;;;8.55;4.70;;;17.90;83.00;;;;;;4974564;28;20054;-91
2021/07/11 02:20:16;;;;;;;7.05;4.55;;;17.90;82.30;;;;;;4975716;28;20047;-90
2021/07/11 02:22:48;;;;;;;9.75;5.55;;;17.90;82.20;;;;;;4975182;28;20043;-90
2021/07/11 02:25:21;;;;;;;6.68;4.55;;;17.80;81.70;;;;;;4975658;28;20453;-90
2021/07/11 02:27:49;;;;;;;6.35;4.40;;;17.70;81.90;;;;;;4974690;28;20477;-93
2021/07/11 02:30:22;;;;;;;7.25;4.57;;;17.70;82.40;;;;;;4974914;28;20129;-91
2021/07/11 02:32:49;;;;;;;;;;;17.70;82.80;;;;;;4975678;28;20055;-91
2021/07/11 02:35:16;;;;;;;7.93;4.78;;;17.60;80.40;;;;;;4974963;28;20287;-92
2021/07/11 02:37:49;;;;;;;6.50;4.57;;;17.60;83.00;;;;;;4975263;28;20046;-92
2021/07/11 02:40:16;;;;;;;6.63;5.00;;;17.60;83.00;;;;;;4975088;28;20515;-92
2021/07/11 02:42:43;;;;;;;6.85;4.93;;;17.60;83.20;;;;;;4977853;28;20406;-92
2021/07/11 02:45:10;;;;;;;8.48;4.97;;;17.60;83.10;;;;;;4978623;28;20050;-91
2021/07/11 02:47:39;;;;;;;8.75;5.28;;;17.60;83.10;;;;;;4979196;28;20138;-90
2021/07/11 02:50:07;;;;;;;7.63;4.95;;;17.50;83.40;;;;;;4978787;28;20058;-92
2021/07/11 02:52:34;;;;;;;7.15;5.22;;;17.60;83.30;;;;;;4978171;28;20563;-90
2021/07/11 02:55:05;;;;;;;7.13;5.18;;;17.50;83.10;;;;;;4978476;28;20042;-92
2021/07/11 02:57:32;;;;;;;7.65;5.13;;;17.50;83.20;;;;;;4978829;28;20054;-92
2021/07/11 03:00:00;;;;;;;7.25;5.05;;;17.50;83.10;;;;;;4977865;28;20054;-91
2021/07/11 03:02:27;;;;;;;6.88;5.22;;;17.50;83.30;;;;;;4978434;28;20138;-92
2021/07/11 03:04:54;;;;;;;10.18;5.38;;;17.50;83.50;;;;;;4977956;28;20046;-90
2021/07/11 03:07:20;;;;;;;6.72;5.05;;;17.50;83.50;;;;;;4977962;28;20054;-91
2021/07/11 03:09:46;;;;;;;9.23;4.82;;;17.50;83.50;;;;;;4977860;28;20075;-91
2021/07/11 03:12:15;;;;;;;7.28;5.25;;;17.40;83.00;;;;;;4977546;28;20055;-91
2021/07/11 03:14:41;;;;;;;7.10;5.13;;;17.40;82.80;;;;;;4978151;28;20051;-90
2021/07/11 03:17:06;;;;;;;7.32;5.65;;;17.40;82.60;;;;;;4977569;28;20101;-90
2021/07/11 03:19:39;;;;;;;9.05;5.40;;;17.30;83.00;;;;;;4978114;28;20046;-91
2021/07/11 03:22:05;;;;;;;7.53;5.03;;;17.30;83.10;;;;;;4978275;28;20468;-91
2021/07/11 03:24:32;;;;;;;7.70;5.45;;;17.30;83.10;;;;;;4977843;28;20302;-90
2021/07/11 03:26:58;;;;;;;7.30;5.45;;;17.30;83.30;;;;;;4977304;28;20050;-92
2021/07/11 03:29:30;;;;;;;8.70;6.10;;;17.30;84.20;;;;;;4978010;28;20047;-90
2021/07/11 03:31:57;;;;;;;8.98;5.55;;;17.20;83.60;;;;;;4978254;28;20560;-90
2021/07/11 03:34:32;;;;;;;7.38;5.88;;;17.30;83.90;;;;;;4976591;28;20042;-90
2021/07/11 03:37:01;;;;;;;7.60;5.68;;;17.20;83.60;;;;;;4977317;28;20051;-90
2021/07/11 03:39:28;;;;;;;7.40;6.03;;;17.20;83.80;;;;;;4977673;28;20039;-89
2021/07/11 03:41:56;;;;;;;6.30;5.18;;;17.20;84.10;;;;;;4976538;28;20050;-90
2021/07/11 03:44:26;;;;;;;7.57;5.82;;;17.20;84.00;;;;;;4977113;28;20091;-90
2021/07/11 03:46:52;;;;;;;8.02;5.53;;;17.20;84.00;;;;;;4977443;28;20447;-90
2021/07/11 03:49:18;;;;;;;7.85;5.93;;;17.20;83.90;;;;;;4977606;28;20137;-91
2021/07/11 03:51:47;;;;;;;7.55;5.57;;;17.10;84.00;;;;;;4977895;28;20125;-92
2021/07/11 03:54:14;;;;;;;8.63;5.82;;;17.10;83.80;;;;;;4975837;28;20510;-91
2021/07/11 03:56:43;;;;;;;7.32;5.55;;;17.10;83.90;;;;;;4977749;28;20046;-91
2021/07/11 03:59:10;;;;;;;7.57;5.95;;;17.10;83.90;;;;;;4978420;28;20051;-91
2021/07/11 04:01:38;;;;;;;8.27;6.00;;;17.10;84.20;;;;;;4977128;28;20074;-90
2021/07/11 04:04:08;;;;;;;8.02;5.75;;;17.10;84.20;;;;;;4977054;28;20925;-91
2021/07/11 04:06:34;;;;;;;7.60;5.72;;;17.10;83.60;;;;;;4977697;28;20078;-91
2021/07/11 04:09:03;;;;;;;8.73;5.85;;;17.00;83.70;;;;;;4976408;28;20524;-91
2021/07/11 04:11:32;;;;;;;8.88;6.10;;;17.00;83.50;;;;;;4977290;28;20051;-91
2021/07/11 04:13:58;;;;;;;8.20;5.68;;;17.00;83.50;;;;;;4976471;28;20047;-91
2021/07/11 04:16:27;;;;;;;7.47;5.40;;;17.00;83.50;;;;;;4976796;28;20055;-90
2021/07/11 04:18:56;;;;;;;8.45;5.65;;;17.00;83.20;;;;;;4977214;28;20125;-92
2021/07/11 04:21:26;;;;;;;8.40;6.15;;;17.00;83.20;;;;;;4977378;28;20046;-91
2021/07/11 04:23:53;;;;;;;8.07;6.03;;;17.00;83.30;;;;;;4976798;28;20042;-91
2021/07/11 04:26:19;;;;;;;7.70;6.00;;;17.00;83.70;;;;;;4977655;28;20065;-91
2021/07/11 04:28:47;;;;;;;7.88;5.88;;;17.00;83.80;;;;;;4977130;28;20146;-92
2021/07/11 04:31:12;;;;;;;8.05;5.75;;;17.00;83.70;;;;;;4977304;28;20047;-91
2021/07/11 04:33:38;;;;;;;9.05;6.38;;;17.00;83.90;;;;;;4977147;28;20054;-91
2021/07/11 04:36:06;;;;;;;9.02;5.93;;;17.00;84.00;;;;;;4977191;28;20529;-91
2021/07/11 04:38:32;;;;;;;9.43;6.05;;;17.00;83.80;;;;;;4977159;28;20058;-90
2021/07/11 04:40:59;;;;;;;8.80;5.72;;;17.00;83.70;;;;;;4976857;28;20055;-92
2021/07/11 04:43:24;;;;;;;9.35;5.93;;;17.10;83.90;;;;;;4976788;28;20051;-91
2021/07/11 04:45:50;;;;;;;10.10;7.00;;;17.10;84.10;;;;;;4977282;28;20051;-91
2021/07/11 04:48:16;;;;;;;7.55;5.32;;;17.10;83.90;;;;;;4977109;28;20054;-90
2021/07/11 04:50:43;;;;;;;7.30;5.78;;;17.10;83.50;;;;;;4976883;28;20051;-91
2021/07/11 04:53:09;;;;;;;7.63;5.55;;;17.10;83.60;;;;;;4977822;28;20460;-91
2021/07/11 04:55:35;;;;;;;7.57;5.90;;;17.10;83.50;;;;;;4977332;28;20047;-91
2021/07/11 04:58:00;;;;;;;7.20;5.07;;;17.10;83.60;;;;;;4977230;28;20121;-91
2021/07/11 05:00:26;;;;;;;7.85;6.00;;;17.10;83.50;;;;;;4976545;28;20050;-91
2021/07/11 05:02:54;;;;;;;9.23;5.88;;;17.20;84.60;;;;;;4976745;28;20081;-90
2021/07/11 05:05:19;;;;;;;7.45;5.45;;;17.20;83.90;;;;;;4976391;28;20070;-91
2021/07/11 05:07:45;;;;;;;7.25;5.78;;;17.20;83.60;;;;;;4975764;28;20058;-90
2021/07/11 05:10:11;;;;;;;8.30;5.70;;;17.20;83.70;;;;;;4974627;28;20081;-92
2021/07/11 05:12:39;;;;;;;7.72;6.05;;;17.30;83.90;;;;;;4973974;28;20526;-92
2021/07/11 05:15:07;;;;;;;8.02;6.50;;;17.30;83.70;;;;;;4975202;28;20070;-92
2021/07/11 05:17:33;;;;;;;8.07;6.03;;;17.30;83.90;;;;;;4974925;28;20121;-91
2021/07/11 05:19:58;;;;;;;8.27;5.97;;;17.30;83.80;;;;;;4973526;28;20483;-91
2021/07/11 05:22:24;;;;;;;7.38;5.65;;;17.30;83.80;;;;;;4975323;28;20046;-92
2021/07/11 05:24:50;;;;;;;7.60;5.68;;;17.30;83.70;;;;;;4975426;28;20565;-93
2021/07/11 05:27:19;;;;;;;7.90;5.40;;;17.30;83.70;;;;;;4976394;28;20066;-91
2021/07/11 05:29:44;;;;;;;9.25;6.22;;;17.30;83.70;;;;;;4975514;28;20046;-93
2021/07/11 05:32:10;;;;;;;7.90;5.70;;;17.30;83.80;;;;;;4975437;28;20050;-92
2021/07/11 05:34:35;;;;;;;9.07;5.68;;;17.40;83.80;;;;;;4975312;28;20110;-92
2021/07/11 05:37:01;;;;;;;8.60;6.22;;;17.40;83.80;;;;;;4975543;28;20117;-92
2021/07/11 05:39:28;;;;;;;8.35;5.47;;;17.40;83.80;;;;;;4976792;28;20047;-93
2021/07/11 05:41:54;;;;;;;8.20;6.25;;;17.40;83.40;;;;;;4975576;28;20138;-93
2021/07/11 05:44:20;;;;;;;8.40;5.57;;;17.40;83.30;;;;;;4975914;28;20181;-91
2021/07/11 05:46:46;;;;;;;8.60;5.65;;;17.40;83.60;;;;;;4974793;28;20043;-90
2021/07/11 05:49:11;;;;;;;8.48;5.55;;;17.40;83.80;;;;;;4976322;28;20058;-92
2021/07/11 05:51:37;;;;;;;7.75;5.30;;;17.50;83.80;;;;;;4974433;28;20113;-91
2021/07/11 05:54:03;;;;;;;8.20;5.80;;;17.50;82.90;;;;;;4973470;28;20062;-93
2021/07/11 05:56:29;;;;;;;9.07;5.60;;;17.50;83.30;;;;;;4974201;28;20049;-94
2021/07/11 05:58:55;;;;;;;8.55;5.82;;;17.60;83.70;;;;;;4973770;28;20122;-92
2021/07/11 06:01:22;;;;;;;9.40;5.68;;;17.60;83.70;;;;;;4974325;28;20138;-92
2021/07/11 06:03:48;;;;;;;9.85;6.50;;;17.60;83.50;;;;;;4973467;28;20141;-93
2021/07/11 06:06:14;;;;;;;8.95;5.90;;;17.60;83.80;;;;;;4974983;28;20047;-93
2021/07/11 06:08:39;;;;;;;8.55;5.75;;;17.70;83.90;;;;;;4974815;28;20497;-90
2021/07/11 06:11:05;;;;;;;9.57;5.63;;;17.70;83.80;;;;;;4975444;28;20055;-93
2021/07/11 06:13:31;;;;;;;8.15;5.25;;;17.70;83.60;;;;;;4975248;28;20054;-89
2021/07/11 06:15:57;;;;;;;8.55;5.80;;;17.80;83.60;;;;;;4973448;28;20047;-81
2021/07/11 06:18:22;;;;;;;8.73;5.68;;;17.80;83.70;;;;;;4978373;28;20098;-83
2021/07/11 06:20:48;;;;;;;8.65;5.35;;;17.80;83.70;;;;;;4977753;28;20093;-81
2021/07/11 06:23:14;;;;;;;7.93;5.90;;;17.90;83.70;;;;;;4977747;28;20521;-82
2021/07/11 06:25:40;;;;;;;8.75;6.00;;;17.90;83.90;;;;;;4978448;28;20059;-82
2021/07/11 06:28:05;;;;;;;9.00;6.32;;;18.00;83.90;;;;;;4978093;28;20061;-82
2021/07/11 06:30:32;;;;;;;7.85;5.57;;;18.10;84.00;;;;;;4976293;28;20054;-82
2021/07/11 06:32:57;;;;;;;8.05;5.40;;;18.10;84.00;;;;;;4976951;28;20072;-87
2021/07/11 06:35:24;;;;;;;8.40;6.32;;;18.20;83.70;;;;;;4977091;28;21432;-85
2021/07/11 06:37:51;;;;;;;11.13;6.45;;;18.20;84.10;;;;;;4977981;28;20086;-91
2021/07/11 06:40:20;;;;;;;9.25;6.10;;;18.20;84.00;;;;;;4985943;28;20122;-87
2021/07/11 06:42:45;;;;;;;9.73;6.05;;;18.30;83.80;;;;;;4980037;28;20047;-88
2021/07/11 06:45:13;;;;;;;16.10;6.25;;;18.40;83.80;;;;;;4981799;28;20073;-88
2021/07/11 06:48:10;;;;;;;11.73;6.68;;;18.40;83.80;;;;;;4973787;28;20055;-94
2021/07/11 06:50:37;;;;;;;11.20;7.28;;;18.40;83.60;;;;;;4977568;28;20057;-92
2021/07/11 06:53:02;;;;;;;10.85;7.47;;;18.50;83.80;;;;;;4978571;28;20439;-93
2021/07/11 06:55:28;;;;;;;10.23;7.07;;;18.60;84.00;;;;;;4978713;28;20142;-94
2021/07/11 06:57:54;;;;;;;11.02;7.60;;;18.60;84.20;;;;;;4979662;28;20125;-93
2021/07/11 07:00:20;;;;;;;9.88;7.38;;;18.70;84.10;;;;;;4977833;28;20097;-90
2021/07/11 07:02:45;;;;;;;11.82;7.53;;;18.80;84.10;;;;;;4976188;28;20141;-92
2021/07/11 07:05:12;;;;;;;11.98;7.55;;;18.80;84.10;;;;;;4976943;28;20522;-93
2021/07/11 07:07:39;;;;;;;9.20;7.32;;;18.90;84.00;;;;;;4977563;28;20066;-91
2021/07/11 07:10:09;;;;;;;10.55;8.00;;;18.90;83.90;;;;;;4976484;28;20151;-93
2021/07/11 07:12:35;;;;;;;10.60;7.47;;;19.00;83.70;;;;;;4977116;28;20062;-91
2021/07/11 07:15:01;;;;;;;11.13;7.50;;;19.00;83.70;;;;;;4976735;28;20527;-92
2021/07/11 07:17:27;;;;;;;11.60;7.95;;;19.10;83.80;;;;;;4976880;28;20080;-90
2021/07/11 07:19:53;;;;;;;10.85;8.23;;;19.20;83.50;;;;;;4986715;28;20175;-92
2021/07/11 07:22:18;;;;;;;13.00;7.57;;;19.30;83.60;;;;;;4996563;28;20046;-92
2021/07/11 07:24:44;;;;;;;11.60;7.78;;;19.30;83.50;;;;;;4992331;28;20077;-93
2021/07/11 07:27:09;;;;;;;9.65;7.22;;;19.40;83.50;;;;;;4960558;28;20047;-92
2021/07/11 07:29:35;;;;;;;13.18;7.90;;;19.50;83.60;;;;;;4975311;28;20050;-92
2021/07/11 07:32:01;;;;;;;11.70;7.47;;;19.60;83.50;;;;;;4976296;28;20047;-92
2021/07/11 07:34:26;;;;;;;12.35;8.05;;;19.60;83.30;;;;;;4975529;28;20066;-91
2021/07/11 07:36:52;;;;;;;10.23;7.80;;;19.70;83.70;;;;;;4974427;28;20081;-94
2021/07/11 07:39:18;;;;;;;10.30;7.55;;;19.80;82.90;;;;;;4978473;28;20133;-90
2021/07/11 07:41:43;;;;;;;12.05;7.63;;;19.80;82.70;;;;;;4976281;28;20506;-91
2021/07/11 07:44:09;;;;;;;11.68;8.45;;;19.90;82.70;;;;;;4977063;28;20049;-91
2021/07/11 07:46:35;;;;;;;10.88;7.88;;;19.90;82.90;;;;;;4982695;28;20043;-93
2021/07/11 07:49:00;;;;;;;11.20;8.35;;;20.00;82.30;;;;;;4976278;28;20058;-91
2021/07/11 07:51:26;;;;;;;11.60;7.43;;;20.10;82.40;;;;;;4977952;28;20113;-94
2021/07/11 07:53:52;;;;;;;9.95;7.32;;;20.20;82.40;;;;;;4975703;28;20129;-91
2021/07/11 07:56:18;;;;;;;10.75;8.07;;;20.30;82.00;;;;;;4976545;28;20137;-91
2021/07/11 07:58:43;;;;;;;10.35;7.82;;;20.40;81.80;;;;;;4976299;28;20049;-92
2021/07/11 08:01:09;;;;;;;10.18;7.63;;;20.40;81.60;;;;;;4977063;28;20042;-92
2021/07/11 08:03:35;;;;;;;9.95;7.60;;;20.50;81.90;;;;;;4976024;28;20057;-93
2021/07/11 08:06:02;;;;;;;12.93;7.75;;;20.50;81.60;;;;;;4976654;28;20058;-93
2021/07/11 08:08:28;;;;;;;10.30;7.25;;;20.60;81.40;;;;;;4979595;28;20055;-92
2021/07/11 08:10:53;;;;;;;9.55;7.63;;;20.70;81.20;;;;;;4974109;28;20106;-91
2021/07/11 08:13:19;;;;;;;12.82;8.30;;;20.80;81.00;;;;;;4976613;28;20082;-92
2021/07/11 08:15:47;;;;;;;10.85;7.90;;;21.00;81.40;;;;;;4977328;28;20467;-93
2021/07/11 08:18:12;;;;;;;9.93;7.82;;;21.00;80.80;;;;;;4978464;28;20047;-91
2021/07/11 08:20:38;;;;;;;11.02;8.10;;;21.10;80.90;;;;;;4978605;28;20058;-91
2021/07/11 08:23:04;;;;;;;12.73;8.48;;;21.20;80.30;;;;;;4975774;28;20047;-93
2021/07/11 08:25:29;;;;;;;10.55;7.82;;;21.20;80.20;;;;;;4977094;28;20039;-89
2021/07/11 08:27:55;;;;;;;10.38;7.88;;;21.30;80.30;;;;;;4977978;28;20093;-93
2021/07/11 08:30:21;;;;;;;10.70;8.45;;;21.40;80.40;;;;;;4980698;28;20040;-93
2021/07/11 08:32:47;;;;;;;11.35;9.07;;;21.50;80.40;;;;;;4977458;28;20113;-93
2021/07/11 08:35:13;;;;;;;10.30;8.45;;;21.60;79.70;;;;;;4981819;28;20051;-93
2021/07/11 08:37:38;;;;;;;11.10;8.80;;;21.60;79.30;;;;;;4979336;28;20061;-94
2021/07/11 08:40:07;;;;;;;14.40;8.75;;;21.70;79.10;;;;;;4977250;28;20046;-95
2021/07/11 08:42:34;;;;;;;12.05;9.20;;;21.70;78.80;;;;;;4978081;28;20055;-92
2021/07/11 08:45:00;;;;;;;12.77;9.40;;;21.80;79.60;;;;;;4977543;28;20047;-94
2021/07/11 08:47:26;;;;;;;12.07;8.93;;;21.90;79.10;;;;;;4976677;28;20054;-92
2021/07/11 08:49:53;;;;;;;11.02;8.60;;;22.00;79.20;;;;;;4976531;28;20047;-92
2021/07/11 08:52:19;;;;;;;11.25;7.93;;;22.10;78.80;;;;;;4974776;28;20055;-90
2021/07/11 08:54:45;;;;;;;13.23;9.00;;;22.10;78.40;;;;;;4975970;28;20097;-92
2021/07/11 08:57:11;;;;;;;10.45;8.25;;;22.20;77.70;;;;;;4976025;28;20047;-91
2021/07/11 08:59:39;;;;;;;11.25;8.65;;;22.30;78.30;;;;;;4975971;28;20051;-89
2021/07/11 09:02:05;;;;;;;9.63;7.85;;;22.40;78.40;;;;;;4976047;28;20047;-92
2021/07/11 09:04:45;;;;;;;12.63;8.52;;;22.50;78.10;;;;;;4976368;28;20058;-90
2021/07/11 09:07:21;;;;;;;10.40;8.32;;;22.60;76.70;;;;;;4974411;28;20046;-91
2021/07/11 09:09:58;;;;;;;10.57;8.73;;;22.60;76.40;;;;;;4975005;28;20391;-91
2021/07/11 09:12:25;;;;;;;11.88;8.30;;;22.60;75.60;;;;;;4968210;28;20039;-92
2021/07/11 09:14:54;;;;;;;14.02;8.93;;;22.60;75.50;;;;;;4974945;28;20054;-91
2021/07/11 09:17:21;;;;;;;12.68;8.27;;;22.60;75.20;;;;;;4975511;28;20101;-91
2021/07/11 09:19:50;;;;;;;12.45;8.18;;;22.70;75.70;;;;;;4981550;28;20134;-91
2021/07/11 09:22:18;;;;;;;11.65;8.45;;;22.70;76.70;;;;;;4976259;28;20047;-92
2021/07/11 09:24:51;;;;;;;13.00;8.38;;;22.80;77.60;;;;;;4975227;28;20154;-92
2021/07/11 09:27:19;;;;;;;11.25;8.68;;;22.90;76.00;;;;;;4975876;28;20079;-92
2021/07/11 09:29:46;;;;;;;10.13;8.30;;;23.00;75.50;;;;;;4975678;28;20046;-93
2021/07/11 09:32:23;;;;;;;10.88;7.55;;;23.10;75.80;;;;;;4975969;28;20054;-92
2021/07/11 09:34:49;;;;;;;12.40;8.35;;;23.10;75.40;;;;;;4976879;28;20930;-91
2021/07/11 09:37:17;;;;;;;11.00;8.02;;;23.30;76.70;;;;;;4976694;28;20047;-92
2021/07/11 09:39:55;;;;;;;10.85;8.43;;;23.40;76.30;;;;;;4976672;28;20138;-90
2021/07/11 09:42:37;;;;;;;10.02;7.82;;;23.50;74.70;;;;;;4977002;28;20042;-93
2021/07/11 09:45:06;;;;;;;12.95;8.18;;;23.60;74.60;;;;;;4965561;28;20047;-94
2021/07/11 09:47:32;;;;;;;10.38;7.47;;;23.60;75.70;;;;;;4976525;28;20047;-94
2021/07/11 09:50:10;;;;;;;11.32;7.90;;;23.70;74.10;;;;;;4975853;28;20051;-90
2021/07/11 09:52:40;;;;;;;10.73;7.80;;;23.70;74.30;;;;;;4977300;28;20058;-94
2021/07/11 09:55:10;;;;;;;11.73;7.97;;;23.80;74.30;;;;;;4975668;28;20046;-91
2021/07/11 09:57:42;;;;;;;9.73;7.65;;;23.80;73.30;;;;;;4975738;28;20055;-92
2021/07/11 10:00:10;;;;;;;11.57;8.23;;;23.80;73.90;;;;;;4976525;28;20054;-94
2021/07/11 10:02:36;;;;;;;9.15;7.28;;;23.80;73.90;;;;;;4977538;28;20487;-94
2021/07/11 10:05:03;;;;;;;12.13;7.80;;;24.00;74.10;;;;;;4975000;28;20434;-94
2021/07/11 10:07:29;;;;;;;11.35;8.02;;;24.00;73.90;;;;;;4974762;28;20054;-95
2021/07/11 10:09:54;;;;;;;11.52;7.72;;;24.00;73.50;;;;;;4974860;28;20110;-93
2021/07/11 10:12:20;;;;;;;9.25;6.85;;;24.10;73.20;;;;;;4977377;28;20074;-92
2021/07/11 10:14:46;;;;;;;8.57;6.90;;;24.20;73.40;;;;;;4976602;28;20482;-92
2021/07/11 10:17:14;;;;;;;11.60;7.22;;;24.20;72.60;;;;;;4975240;28;20046;-92
2021/07/11 10:19:48;;;;;;;10.32;7.07;;;24.30;73.00;;;;;;4976230;28;20051;-93
2021/07/11 10:22:16;;;;;;;8.43;6.70;;;24.30;73.10;;;;;;4975656;28;20042;-90
2021/07/11 10:24:45;;;;;;;9.10;6.88;;;24.30;72.90;;;;;;4978169;28;20054;-95
2021/07/11 10:27:26;;;;;;;9.75;7.53;;;24.40;72.30;;;;;;4979488;28;20102;-93
2021/07/11 10:29:55;;;;;;;9.52;7.20;;;24.40;72.30;;;;;;4983743;28;20047;-95
2021/07/11 10:32:29;;;;;;;8.85;6.80;;;24.50;72.20;;;;;;4984599;28;20039;-95
2021/07/11 10:35:16;;;;;;;10.32;6.85;;;24.50;71.10;;;;;;4977015;28;20118;-95
2021/07/11 10:37:53;;;;;;;8.48;6.47;;;24.50;72.10;;;;;;4986130;28;20468;-96
2021/07/11 10:40:29;;;;;;;8.75;6.40;;;24.50;71.70;;;;;;4984769;28;20053;-92
2021/07/11 10:42:55;;;;;;;9.05;6.53;;;24.50;72.00;;;;;;4974110;28;20077;-83
2021/07/11 10:45:21;;;;;;;9.68;7.40;;;24.50;71.60;;;;;;4974560;28;20047;-84
2021/07/11 10:47:47;;;;;;;10.18;6.70;;;24.50;71.50;;;;;;4973617;28;20512;-85
2021/07/11 10:50:32;;;;;;;8.52;6.65;;;24.60;71.50;;;;;;4973816;28;20093;-85
2021/07/11 10:53:00;;;;;;;9.40;6.28;;;24.60;71.60;;;;;;4973779;28;20050;-85
2021/07/11 10:55:37;;;;;;;8.82;6.53;;;24.60;71.60;;;;;;4974009;28;20038;-85
2021/07/11 10:58:37;;;;;;;9.02;6.90;;;24.70;71.50;;;;;;4973473;28;20087;-85
2021/07/11 11:01:16;;;;;;;10.55;7.28;;;24.70;71.10;;;;;;4974422;28;20126;-84
2021/07/11 11:03:50;;;;;;;9.23;6.53;;;24.70;70.70;;;;;;4975717;28;20059;-86
2021/07/11 11:06:18;;;;;;;9.15;6.93;;;24.70;70.20;;;;;;4977706;28;20125;-82
2021/07/11 11:08:44;;;;;;;9.63;6.63;;;24.70;70.00;;;;;;4975540;28;20057;-82
2021/07/11 11:11:10;;;;;;;8.80;6.90;;;24.70;69.80;;;;;;4975719;28;20505;-80
2021/07/11 11:13:36;;;;;;;9.48;6.57;;;24.80;69.20;;;;;;4976643;28;20046;-82
2021/07/11 11:16:19;;;;;;;9.43;7.32;;;24.70;69.10;;;;;;4977278;28;20166;-83
2021/07/11 11:18:50;;;;;;;9.63;7.10;;;24.70;69.90;;;;;;4976613;28;20113;-82
2021/07/11 11:21:19;;;;;;;10.27;7.50;;;24.70;70.00;;;;;;4983017;28;20074;-83
2021/07/11 11:23:48;;;;;;;8.82;7.00;;;24.70;70.10;;;;;;4977186;28;20051;-82
2021/07/11 11:26:25;;;;;;;11.00;7.25;;;24.70;70.20;;;;;;4976742;28;20042;-84
2021/07/11 11:28:52;;;;;;;8.88;7.25;;;24.70;70.70;;;;;;4977720;28;20125;-92
2021/07/11 11:31:22;;;;;;;9.68;7.10;;;24.80;71.20;;;;;;4979567;28;20446;-88
2021/07/11 11:33:57;;;;;;;8.48;7.15;;;24.80;71.40;;;;;;4978290;28;20086;-92
2021/07/11 11:36:41;;;;;;;9.40;7.25;;;24.80;71.70;;;;;;4979312;28;20050;-93
2021/07/11 11:39:19;;;;;;;9.52;7.47;;;24.90;72.10;;;;;;4979865;28;20051;-92
2021/07/11 11:41:45;;;;;;;10.10;7.53;;;24.90;72.20;;;;;;4980453;28;20105;-91
2021/07/11 11:44:16;;;;;;;8.63;6.32;;;25.00;72.40;;;;;;4980188;28;20059;-91
2021/07/11 11:46:47;;;;;;;8.43;6.45;;;25.00;72.10;;;;;;4980620;28;20110;-93
2021/07/11 11:49:18;;;;;;;9.40;6.88;;;25.00;72.30;;;;;;4982647;28;20058;-92
2021/07/11 11:51:51;;;;;;;9.43;6.47;;;25.00;72.60;;;;;;4979746;28;20483;-90
2021/07/11 11:54:34;;;;;;;9.85;6.70;;;25.10;72.70;;;;;;4981729;28;20050;-93
2021/07/11 11:57:00;;;;;;;;;;;25.10;72.80;;;;;;4981906;28;20043;-93
2021/07/11 11:59:27;;;;;;;8.70;6.55;;;25.00;73.30;;;;;;4980179;28;19976;-90
2021/07/11 12:02:11;;;;;;;8.63;6.00;;;25.10;73.20;;;;;;4980017;28;20093;-93
2021/07/11 12:04:37;;;;;;;10.20;6.47;;;25.10;73.20;;;;;;4959078;28;20515;-90
2021/07/11 12:07:06;;;;;;;7.35;6.22;;;25.10;73.20;;;;;;4958811;28;20074;-92
2021/07/11 12:09:34;;;;;;;8.55;5.57;;;25.20;73.10;;;;;;4959181;28;20070;-92
2021/07/11 12:12:08;;;;;;;7.28;5.80;;;25.20;73.30;;;;;;4958808;28;20418;-91
2021/07/11 12:14:36;;;;;;;8.18;5.75;;;25.30;73.30;;;;;;4958758;28;20063;-93
2021/07/11 12:17:03;;;;;;;10.45;5.80;;;25.30;73.40;;;;;;4977762;28;20143;-92
2021/07/11 12:19:40;;;;;;;7.55;5.72;;;25.30;73.30;;;;;;4977938;28;20061;-91
2021/07/11 12:22:06;;;;;;;9.18;5.93;;;25.30;73.40;;;;;;4977520;28;20535;-91
2021/07/11 12:24:32;;;;;;;8.32;5.53;;;25.30;73.40;;;;;;4978894;28;20051;-91
2021/07/11 12:27:01;;;;;;;8.40;5.38;;;25.30;73.20;;;;;;4980626;28;20046;-93
2021/07/11 12:29:32;;;;;;;7.30;5.40;;;25.30;73.40;;;;;;4982631;28;20094;-91
2021/07/11 12:32:05;;;;;;;7.25;5.55;;;25.30;73.20;;;;;;4978064;28;20129;-89
2021/07/11 12:34:32;;;;;;;9.70;5.63;;;25.30;73.20;;;;;;4977523;28;20062;-91
2021/07/11 12:37:05;;;;;;;7.68;5.75;;;25.30;73.20;;;;;;4977086;28;20053;-87
2021/07/11 12:39:35;;;;;;;8.73;6.00;;;25.30;73.20;;;;;;4962403;28;20043;-94
2021/07/11 12:42:01;;;;;;;6.80;5.60;;;25.30;73.40;;;;;;4979198;28;20049;-94
2021/07/11 12:44:46;;;;;;;8.00;5.70;;;25.40;73.60;;;;;;4978814;28;20050;-94
2021/07/11 12:47:18;;;;;;;7.45;5.60;;;25.30;73.50;;;;;;4977853;28;20076;-94
2021/07/11 12:49:54;;;;;;;7.85;5.90;;;25.30;73.60;;;;;;4978120;28;20046;-95
2021/07/11 12:52:21;;;;;;;8.07;5.82;;;25.40;73.70;;;;;;4979481;28;20054;-91